sensor_id;sensor_type;location;lat;lon;timestamp;P1;durP1;ratioP1;P2;durP2;ratioP2
17504;SDS011;8870;50.950;11.762;2023-10-13T00:01:12;3.58;;;2.00;;
17504;SDS011;8870;50.950;11.762;2023-10-13T00:06:46;2.78;;;2.08;;
17504;SDS011;8870;50.950;11.762;2023-10-13T00:12:06;4.03;;;2.03;;
17504;SDS011;8870;50.950;11.762;2023-10-13T00:17:45;3.80;;;1.90;;
17504;SDS011;8870;50.950;11.762;2023-10-13T00:23:07;3.47;;;1.90;;
17504;SDS011;8870;50.950;11.762;2023-10-13T00:28:43;3.28;;;1.65;;
17504;SDS011;8870;50.950;11.762;2023-10-13T00:34:20;3.85;;;1.90;;
17504;SDS011;8870;50.950;11.762;2023-10-13T00:39:44;2.70;;;1.90;;
17504;SDS011;8870;50.950;11.762;2023-10-13T00:45:18;3.25;;;2.28;;
17504;SDS011;8870;50.950;11.762;2023-10-13T00:50:36;3.90;;;2.25;;
17504;SDS011;8870;50.950;11.762;2023-10-13T00:56:13;3.33;;;1.98;;
17504;SDS011;8870;50.950;11.762;2023-10-13T01:01:41;4.32;;;2.40;;
17504;SDS011;8870;50.950;11.762;2023-10-13T01:07:17;3.35;;;2.30;;
17504;SDS011;8870;50.950;11.762;2023-10-13T01:12:40;4.20;;;2.30;;
17504;SDS011;8870;50.950;11.762;2023-10-13T01:18:14;3.70;;;2.38;;
17504;SDS011;8870;50.950;11.762;2023-10-13T01:23:35;2.80;;;1.92;;
17504;SDS011;8870;50.950;11.762;2023-10-13T01:29:08;4.10;;;2.20;;
17504;SDS011;8870;50.950;11.762;2023-10-13T01:34:29;4.88;;;1.83;;
17504;SDS011;8870;50.950;11.762;2023-10-13T01:40:03;3.50;;;2.10;;
17504;SDS011;8870;50.950;11.762;2023-10-13T01:45:40;3.83;;;2.15;;
17504;SDS011;8870;50.950;11.762;2023-10-13T01:51:03;3.08;;;2.10;;
17504;SDS011;8870;50.950;11.762;2023-10-13T01:56:37;2.70;;;1.90;;
17504;SDS011;8870;50.950;11.762;2023-10-13T02:01:57;2.30;;;1.80;;
17504;SDS011;8870;50.950;11.762;2023-10-13T02:07:30;4.00;;;1.90;;
17504;SDS011;8870;50.950;11.762;2023-10-13T02:12:52;3.78;;;2.15;;
17504;SDS011;8870;50.950;11.762;2023-10-13T02:18:25;3.92;;;2.00;;
17504;SDS011;8870;50.950;11.762;2023-10-13T02:23:48;5.07;;;1.80;;
17504;SDS011;8870;50.950;11.762;2023-10-13T02:29:28;2.85;;;1.90;;
17504;SDS011;8870;50.950;11.762;2023-10-13T02:34:53;2.88;;;2.08;;
17504;SDS011;8870;50.950;11.762;2023-10-13T02:40:34;3.97;;;2.00;;
17504;SDS011;8870;50.950;11.762;2023-10-13T02:46:10;3.88;;;2.00;;
17504;SDS011;8870;50.950;11.762;2023-10-13T02:51:30;3.63;;;2.10;;
17504;SDS011;8870;50.950;11.762;2023-10-13T02:57:03;2.08;;;1.67;;
17504;SDS011;8870;50.950;11.762;2023-10-13T03:02:24;2.85;;;1.92;;
17504;SDS011;8870;50.950;11.762;2023-10-13T03:08:03;3.05;;;1.77;;
17504;SDS011;8870;50.950;11.762;2023-10-13T03:13:24;3.05;;;1.88;;
17504;SDS011;8870;50.950;11.762;2023-10-13T03:19:02;3.40;;;1.88;;
17504;SDS011;8870;50.950;11.762;2023-10-13T03:24:23;2.47;;;2.10;;
17504;SDS011;8870;50.950;11.762;2023-10-13T03:29:57;2.67;;;1.90;;
17504;SDS011;8870;50.950;11.762;2023-10-13T03:35:27;3.60;;;2.10;;
17504;SDS011;8870;50.950;11.762;2023-10-13T03:41:16;3.45;;;2.45;;
17504;SDS011;8870;50.950;11.762;2023-10-13T03:46:39;3.42;;;2.20;;
17504;SDS011;8870;50.950;11.762;2023-10-13T03:52:13;3.85;;;2.30;;
17504;SDS011;8870;50.950;11.762;2023-10-13T03:57:37;2.97;;;2.20;;
17504;SDS011;8870;50.950;11.762;2023-10-13T04:03:12;2.70;;;2.20;;
17504;SDS011;8870;50.950;11.762;2023-10-13T04:08:37;4.05;;;2.20;;
17504;SDS011;8870;50.950;11.762;2023-10-13T04:14:36;4.00;;;2.30;;
17504;SDS011;8870;50.950;11.762;2023-10-13T04:20:07;3.38;;;2.05;;
17504;SDS011;8870;50.950;11.762;2023-10-13T04:25:57;5.45;;;2.30;;
17504;SDS011;8870;50.950;11.762;2023-10-13T04:31:36;3.03;;;2.10;;
17504;SDS011;8870;50.950;11.762;2023-10-13T04:37:19;5.00;;;2.40;;
17504;SDS011;8870;50.950;11.762;2023-10-13T04:42:54;4.63;;;2.38;;
17504;SDS011;8870;50.950;11.762;2023-10-13T04:48:48;3.30;;;2.17;;
17504;SDS011;8870;50.950;11.762;2023-10-13T04:54:11;2.88;;;2.08;;
17504;SDS011;8870;50.950;11.762;2023-10-13T04:59:58;5.05;;;2.50;;
17504;SDS011;8870;50.950;11.762;2023-10-13T05:05:32;6.68;;;2.35;;
17504;SDS011;8870;50.950;11.762;2023-10-13T05:11:30;4.77;;;2.63;;
17504;SDS011;8870;50.950;11.762;2023-10-13T05:17:04;5.03;;;2.20;;
17504;SDS011;8870;50.950;11.762;2023-10-13T05:22:48;2.75;;;2.05;;
17504;SDS011;8870;50.950;11.762;2023-10-13T05:28:18;3.10;;;2.20;;
17504;SDS011;8870;50.950;11.762;2023-10-13T05:34:05;5.35;;;2.63;;
17504;SDS011;8870;50.950;11.762;2023-10-13T05:39:35;3.53;;;2.38;;
17504;SDS011;8870;50.950;11.762;2023-10-13T05:45:20;4.45;;;2.35;;
17504;SDS011;8870;50.950;11.762;2023-10-13T05:51:02;3.78;;;2.15;;
17504;SDS011;8870;50.950;11.762;2023-10-13T05:56:47;4.07;;;2.20;;
17504;SDS011;8870;50.950;11.762;2023-10-13T06:02:19;3.33;;;2.30;;
17504;SDS011;8870;50.950;11.762;2023-10-13T06:08:07;3.10;;;2.30;;
17504;SDS011;8870;50.950;11.762;2023-10-13T06:13:41;4.55;;;2.20;;
17504;SDS011;8870;50.950;11.762;2023-10-13T06:19:25;3.83;;;2.22;;
17504;SDS011;8870;50.950;11.762;2023-10-13T06:24:58;3.03;;;1.90;;
17504;SDS011;8870;50.950;11.762;2023-10-13T06:30:52;3.22;;;2.13;;
17504;SDS011;8870;50.950;11.762;2023-10-13T06:36:12;4.80;;;2.00;;
17504;SDS011;8870;50.950;11.762;2023-10-13T06:41:48;4.38;;;2.10;;
17504;SDS011;8870;50.950;11.762;2023-10-13T06:47:20;4.90;;;1.80;;
17504;SDS011;8870;50.950;11.762;2023-10-13T06:52:39;2.47;;;2.00;;
17504;SDS011;8870;50.950;11.762;2023-10-13T06:58:14;2.38;;;1.90;;
17504;SDS011;8870;50.950;11.762;2023-10-13T07:03:32;3.25;;;1.85;;
17504;SDS011;8870;50.950;11.762;2023-10-13T07:09:03;4.60;;;1.90;;
17504;SDS011;8870;50.950;11.762;2023-10-13T07:14:44;5.18;;;1.88;;
17504;SDS011;8870;50.950;11.762;2023-10-13T07:20:21;3.75;;;1.73;;
17504;SDS011;8870;50.950;11.762;2023-10-13T07:25:51;3.03;;;1.90;;
17504;SDS011;8870;50.950;11.762;2023-10-13T07:31:29;3.22;;;1.80;;
17504;SDS011;8870;50.950;11.762;2023-10-13T07:36:51;3.03;;;1.73;;
17504;SDS011;8870;50.950;11.762;2023-10-13T07:42:29;5.07;;;1.95;;
17504;SDS011;8870;50.950;11.762;2023-10-13T07:48:07;3.55;;;1.70;;
17504;SDS011;8870;50.950;11.762;2023-10-13T07:53:34;6.28;;;1.90;;
17504;SDS011;8870;50.950;11.762;2023-10-13T07:59:10;4.32;;;1.90;;
17504;SDS011;8870;50.950;11.762;2023-10-13T08:04:32;3.83;;;1.80;;
17504;SDS011;8870;50.950;11.762;2023-10-13T08:10:04;5.75;;;2.22;;
17504;SDS011;8870;50.950;11.762;2023-10-13T08:15:24;4.90;;;2.20;;
17504;SDS011;8870;50.950;11.762;2023-10-13T08:21:01;8.05;;;2.20;;
17504;SDS011;8870;50.950;11.762;2023-10-13T08:26:20;4.35;;;2.17;;
17504;SDS011;8870;50.950;11.762;2023-10-13T08:32:16;5.70;;;2.20;;
17504;SDS011;8870;50.950;11.762;2023-10-13T08:37:53;5.50;;;2.30;;
17504;SDS011;8870;50.950;11.762;2023-10-13T08:43:43;5.35;;;2.30;;
17504;SDS011;8870;50.950;11.762;2023-10-13T08:49:15;10.20;;;2.70;;
17504;SDS011;8870;50.950;11.762;2023-10-13T08:54:41;5.25;;;2.42;;
17504;SDS011;8870;50.950;11.762;2023-10-13T09:00:28;7.53;;;2.67;;
17504;SDS011;8870;50.950;11.762;2023-10-13T09:06:12;7.95;;;2.65;;
17504;SDS011;8870;50.950;11.762;2023-10-13T09:11:50;7.82;;;2.50;;
17504;SDS011;8870;50.950;11.762;2023-10-13T09:17:11;7.90;;;2.60;;
17504;SDS011;8870;50.950;11.762;2023-10-13T09:22:55;6.82;;;2.83;;
17504;SDS011;8870;50.950;11.762;2023-10-13T09:28:27;5.30;;;2.20;;
17504;SDS011;8870;50.950;11.762;2023-10-13T09:34:01;7.55;;;2.53;;
17504;SDS011;8870;50.950;11.762;2023-10-13T09:39:31;5.17;;;2.10;;
17504;SDS011;8870;50.950;11.762;2023-10-13T09:45:13;6.28;;;2.40;;
17504;SDS011;8870;50.950;11.762;2023-10-13T09:50:35;6.68;;;2.17;;
17504;SDS011;8870;50.950;11.762;2023-10-13T09:56:11;6.15;;;2.42;;
17504;SDS011;8870;50.950;11.762;2023-10-13T10:01:37;6.63;;;2.38;;
17504;SDS011;8870;50.950;11.762;2023-10-13T10:07:23;7.05;;;2.50;;
17504;SDS011;8870;50.950;11.762;2023-10-13T10:12:45;6.88;;;2.22;;
17504;SDS011;8870;50.950;11.762;2023-10-13T10:18:32;7.13;;;2.25;;
17504;SDS011;8870;50.950;11.762;2023-10-13T10:23:52;5.78;;;2.17;;
17504;SDS011;8870;50.950;11.762;2023-10-13T10:29:27;6.57;;;2.13;;
17504;SDS011;8870;50.950;11.762;2023-10-13T10:34:49;4.88;;;2.10;;
17504;SDS011;8870;50.950;11.762;2023-10-13T10:40:21;10.00;;;2.22;;
17504;SDS011;8870;50.950;11.762;2023-10-13T10:46:01;8.93;;;2.20;;
17504;SDS011;8870;50.950;11.762;2023-10-13T10:51:36;6.20;;;2.08;;
17504;SDS011;8870;50.950;11.762;2023-10-13T10:57:02;9.02;;;2.20;;
17504;SDS011;8870;50.950;11.762;2023-10-13T11:02:39;6.70;;;2.20;;
17504;SDS011;8870;50.950;11.762;2023-10-13T11:08:03;7.32;;;2.10;;
17504;SDS011;8870;50.950;11.762;2023-10-13T11:13:40;5.35;;;2.25;;
17504;SDS011;8870;50.950;11.762;2023-10-13T11:19:05;7.88;;;2.20;;
17504;SDS011;8870;50.950;11.762;2023-10-13T11:24:42;8.38;;;2.20;;
17504;SDS011;8870;50.950;11.762;2023-10-13T11:35:34;7.45;;;2.20;;
17504;SDS011;8870;50.950;11.762;2023-10-13T11:41:08;5.95;;;2.10;;
17504;SDS011;8870;50.950;11.762;2023-10-13T11:46:40;4.80;;;1.90;;
17504;SDS011;8870;50.950;11.762;2023-10-13T11:52:16;5.45;;;1.92;;
17504;SDS011;8870;50.950;11.762;2023-10-13T11:57:53;6.95;;;2.00;;
17504;SDS011;8870;50.950;11.762;2023-10-13T12:03:14;4.00;;;1.87;;
17504;SDS011;8870;50.950;11.762;2023-10-13T12:08:58;5.88;;;1.83;;
17504;SDS011;8870;50.950;11.762;2023-10-13T12:14:31;6.10;;;1.92;;
17504;SDS011;8870;50.950;11.762;2023-10-13T12:20:13;5.97;;;1.73;;
17504;SDS011;8870;50.950;11.762;2023-10-13T12:25:46;5.50;;;1.88;;
17504;SDS011;8870;50.950;11.762;2023-10-13T12:31:31;6.45;;;2.20;;
17504;SDS011;8870;50.950;11.762;2023-10-13T12:36:53;6.00;;;2.20;;
17504;SDS011;8870;50.950;11.762;2023-10-13T12:42:49;5.75;;;2.00;;
17504;SDS011;8870;50.950;11.762;2023-10-13T12:48:23;5.93;;;1.80;;
17504;SDS011;8870;50.950;11.762;2023-10-13T12:54:07;3.65;;;1.77;;
17504;SDS011;8870;50.950;11.762;2023-10-13T12:59:34;4.30;;;1.83;;
17504;SDS011;8870;50.950;11.762;2023-10-13T13:05:08;6.18;;;1.80;;
17504;SDS011;8870;50.950;11.762;2023-10-13T13:10:28;5.35;;;2.15;;
17504;SDS011;8870;50.950;11.762;2023-10-13T13:16:00;4.95;;;1.92;;
17504;SDS011;8870;50.950;11.762;2023-10-13T13:21:21;3.53;;;1.80;;
17504;SDS011;8870;50.950;11.762;2023-10-13T13:26:52;6.88;;;1.80;;
17504;SDS011;8870;50.950;11.762;2023-10-13T13:32:11;5.60;;;1.80;;
17504;SDS011;8870;50.950;11.762;2023-10-13T13:37:48;6.20;;;1.80;;
17504;SDS011;8870;50.950;11.762;2023-10-13T13:43:13;5.03;;;1.98;;
17504;SDS011;8870;50.950;11.762;2023-10-13T13:49:00;4.97;;;1.67;;
17504;SDS011;8870;50.950;11.762;2023-10-13T13:54:24;7.43;;;2.15;;
17504;SDS011;8870;50.950;11.762;2023-10-13T13:59:55;5.97;;;1.80;;
17504;SDS011;8870;50.950;11.762;2023-10-13T14:05:14;4.38;;;1.85;;
17504;SDS011;8870;50.950;11.762;2023-10-13T14:10:48;4.38;;;1.80;;
17504;SDS011;8870;50.950;11.762;2023-10-13T14:16:25;4.18;;;1.80;;
17504;SDS011;8870;50.950;11.762;2023-10-13T14:21:59;7.30;;;1.80;;
17504;SDS011;8870;50.950;11.762;2023-10-13T14:27:24;5.10;;;1.80;;
17504;SDS011;8870;50.950;11.762;2023-10-13T14:32:56;6.80;;;1.70;;
17504;SDS011;8870;50.950;11.762;2023-10-13T14:38:16;5.15;;;1.90;;
17504;SDS011;8870;50.950;11.762;2023-10-13T14:43:49;4.28;;;1.60;;
17504;SDS011;8870;50.950;11.762;2023-10-13T14:49:26;4.18;;;1.77;;
17504;SDS011;8870;50.950;11.762;2023-10-13T14:54:45;5.43;;;1.70;;
17504;SDS011;8870;50.950;11.762;2023-10-13T15:00:22;6.72;;;1.65;;
17504;SDS011;8870;50.950;11.762;2023-10-13T15:11:17;4.10;;;1.70;;
17504;SDS011;8870;50.950;11.762;2023-10-13T15:16:38;3.35;;;1.60;;
17504;SDS011;8870;50.950;11.762;2023-10-13T15:22:10;6.63;;;1.90;;
17504;SDS011;8870;50.950;11.762;2023-10-13T15:27:32;4.80;;;1.77;;
17504;SDS011;8870;50.950;11.762;2023-10-13T15:33:14;5.25;;;1.88;;
17504;SDS011;8870;50.950;11.762;2023-10-13T15:38:35;3.78;;;1.60;;
17504;SDS011;8870;50.950;11.762;2023-10-13T15:44:08;5.18;;;1.80;;
17504;SDS011;8870;50.950;11.762;2023-10-13T15:49:49;5.97;;;1.60;;
17504;SDS011;8870;50.950;11.762;2023-10-13T15:55:09;4.07;;;1.58;;
17504;SDS011;8870;50.950;11.762;2023-10-13T16:00:41;5.50;;;1.60;;
17504;SDS011;8870;50.950;11.762;2023-10-13T16:06:04;4.47;;;1.88;;
17504;SDS011;8870;50.950;11.762;2023-10-13T16:11:36;4.20;;;1.77;;
17504;SDS011;8870;50.950;11.762;2023-10-13T16:16:55;3.88;;;1.80;;
17504;SDS011;8870;50.950;11.762;2023-10-13T16:22:33;6.60;;;1.80;;
17504;SDS011;8870;50.950;11.762;2023-10-13T16:27:52;4.32;;;1.70;;
17504;SDS011;8870;50.950;11.762;2023-10-13T16:33:23;4.68;;;1.70;;
17504;SDS011;8870;50.950;11.762;2023-10-13T16:38:59;4.90;;;1.80;;
17504;SDS011;8870;50.950;11.762;2023-10-13T16:44:25;4.88;;;1.88;;
17504;SDS011;8870;50.950;11.762;2023-10-13T16:50:25;5.35;;;1.75;;
17504;SDS011;8870;50.950;11.762;2023-10-13T16:55:46;4.85;;;1.60;;
17504;SDS011;8870;50.950;11.762;2023-10-13T17:01:17;5.85;;;2.03;;
17504;SDS011;8870;50.950;11.762;2023-10-13T17:06:37;3.72;;;1.60;;
17504;SDS011;8870;50.950;11.762;2023-10-13T17:12:16;4.80;;;1.60;;
17504;SDS011;8870;50.950;11.762;2023-10-13T17:17:37;3.35;;;1.60;;
17504;SDS011;8870;50.950;11.762;2023-10-13T17:23:10;4.45;;;1.55;;
17504;SDS011;8870;50.950;11.762;2023-10-13T17:28:32;4.50;;;1.70;;
17504;SDS011;8870;50.950;11.762;2023-10-13T17:34:04;5.40;;;1.73;;
17504;SDS011;8870;50.950;11.762;2023-10-13T17:39:27;7.93;;;2.33;;
17504;SDS011;8870;50.950;11.762;2023-10-13T17:45:05;5.45;;;1.90;;
17504;SDS011;8870;50.950;11.762;2023-10-13T17:50:37;4.47;;;2.05;;
17504;SDS011;8870;50.950;11.762;2023-10-13T17:55:55;3.78;;;2.20;;
17504;SDS011;8870;50.950;11.762;2023-10-13T18:01:32;4.40;;;1.90;;
17504;SDS011;8870;50.950;11.762;2023-10-13T18:06:51;4.40;;;1.88;;
17504;SDS011;8870;50.950;11.762;2023-10-13T18:12:22;4.03;;;1.58;;
17504;SDS011;8870;50.950;11.762;2023-10-13T18:17:43;5.15;;;1.83;;
17504;SDS011;8870;50.950;11.762;2023-10-13T18:23:17;5.00;;;1.55;;
17504;SDS011;8870;50.950;11.762;2023-10-13T18:28:35;3.40;;;1.80;;
17504;SDS011;8870;50.950;11.762;2023-10-13T18:34:08;6.45;;;1.60;;
17504;SDS011;8870;50.950;11.762;2023-10-13T18:39:28;2.30;;;1.40;;
17504;SDS011;8870;50.950;11.762;2023-10-13T18:45:02;2.65;;;1.60;;
17504;SDS011;8870;50.950;11.762;2023-10-13T18:50:40;2.55;;;1.50;;
17504;SDS011;8870;50.950;11.762;2023-10-13T18:56:04;4.75;;;1.83;;
17504;SDS011;8870;50.950;11.762;2023-10-13T19:01:36;8.85;;;1.80;;
17504;SDS011;8870;50.950;11.762;2023-10-13T19:06:56;5.38;;;1.83;;
17504;SDS011;8870;50.950;11.762;2023-10-13T19:12:31;4.93;;;1.88;;
17504;SDS011;8870;50.950;11.762;2023-10-13T19:17:49;3.25;;;1.80;;
17504;SDS011;8870;50.950;11.762;2023-10-13T19:23:26;5.30;;;1.63;;
17504;SDS011;8870;50.950;11.762;2023-10-13T19:28:45;6.20;;;1.58;;
17504;SDS011;8870;50.950;11.762;2023-10-13T19:34:17;4.35;;;1.52;;
17504;SDS011;8870;50.950;11.762;2023-10-13T19:39:37;4.32;;;1.70;;
17504;SDS011;8870;50.950;11.762;2023-10-13T19:45:10;5.50;;;1.63;;
17504;SDS011;8870;50.950;11.762;2023-10-13T19:50:43;5.40;;;1.70;;
17504;SDS011;8870;50.950;11.762;2023-10-13T19:56:04;6.22;;;1.80;;
17504;SDS011;8870;50.950;11.762;2023-10-13T20:01:36;4.38;;;1.70;;
17504;SDS011;8870;50.950;11.762;2023-10-13T20:06:57;5.00;;;1.60;;
17504;SDS011;8870;50.950;11.762;2023-10-13T20:12:30;8.98;;;2.10;;
17504;SDS011;8870;50.950;11.762;2023-10-13T20:17:49;3.38;;;1.80;;
17504;SDS011;8870;50.950;11.762;2023-10-13T20:23:20;4.65;;;1.73;;
17504;SDS011;8870;50.950;11.762;2023-10-13T20:28:43;9.00;;;1.60;;
17504;SDS011;8870;50.950;11.762;2023-10-13T20:34:14;2.95;;;1.63;;
17504;SDS011;8870;50.950;11.762;2023-10-13T20:39:34;4.47;;;1.60;;
17504;SDS011;8870;50.950;11.762;2023-10-13T20:45:08;3.78;;;1.60;;
17504;SDS011;8870;50.950;11.762;2023-10-13T20:50:43;5.88;;;1.70;;
17504;SDS011;8870;50.950;11.762;2023-10-13T20:56:02;4.80;;;1.65;;
17504;SDS011;8870;50.950;11.762;2023-10-13T21:01:38;3.90;;;1.67;;
17504;SDS011;8870;50.950;11.762;2023-10-13T21:06:57;3.53;;;1.38;;
17504;SDS011;8870;50.950;11.762;2023-10-13T21:12:29;5.22;;;1.55;;
17504;SDS011;8870;50.950;11.762;2023-10-13T21:17:50;5.95;;;1.83;;
17504;SDS011;8870;50.950;11.762;2023-10-13T21:23:22;2.63;;;1.58;;
17504;SDS011;8870;50.950;11.762;2023-10-13T21:28:40;4.55;;;1.67;;
17504;SDS011;8870;50.950;11.762;2023-10-13T21:34:13;3.60;;;1.48;;
17504;SDS011;8870;50.950;11.762;2023-10-13T21:39:34;4.97;;;1.60;;
17504;SDS011;8870;50.950;11.762;2023-10-13T21:45:05;4.85;;;1.65;;
17504;SDS011;8870;50.950;11.762;2023-10-13T21:50:41;5.45;;;1.50;;
17504;SDS011;8870;50.950;11.762;2023-10-13T21:56:13;7.50;;;1.83;;
17504;SDS011;8870;50.950;11.762;2023-10-13T22:01:34;5.57;;;1.40;;
17504;SDS011;8870;50.950;11.762;2023-10-13T22:07:08;6.10;;;1.38;;
17504;SDS011;8870;50.950;11.762;2023-10-13T22:12:27;3.72;;;1.50;;
17504;SDS011;8870;50.950;11.762;2023-10-13T22:17:59;3.97;;;1.38;;
17504;SDS011;8870;50.950;11.762;2023-10-13T22:23:21;5.30;;;1.33;;
17504;SDS011;8870;50.950;11.762;2023-10-13T22:28:52;3.50;;;1.70;;
17504;SDS011;8870;50.950;11.762;2023-10-13T22:34:10;5.32;;;1.38;;
17504;SDS011;8870;50.950;11.762;2023-10-13T22:39:45;4.00;;;1.40;;
17504;SDS011;8870;50.950;11.762;2023-10-13T22:45:04;5.13;;;1.40;;
17504;SDS011;8870;50.950;11.762;2023-10-13T22:50:39;5.20;;;1.58;;
17504;SDS011;8870;50.950;11.762;2023-10-13T22:56:00;4.20;;;1.30;;
17504;SDS011;8870;50.950;11.762;2023-10-13T23:01:31;3.38;;;1.40;;
17504;SDS011;8870;50.950;11.762;2023-10-13T23:06:57;3.38;;;1.50;;
17504;SDS011;8870;50.950;11.762;2023-10-13T23:12:41;4.55;;;1.70;;
17504;SDS011;8870;50.950;11.762;2023-10-13T23:18:01;4.20;;;1.50;;
17504;SDS011;8870;50.950;11.762;2023-10-13T23:23:33;3.28;;;1.38;;
17504;SDS011;8870;50.950;11.762;2023-10-13T23:28:53;4.28;;;1.20;;
17504;SDS011;8870;50.950;11.762;2023-10-13T23:34:26;7.30;;;1.50;;
17504;SDS011;8870;50.950;11.762;2023-10-13T23:39:45;3.78;;;1.30;;
17504;SDS011;8870;50.950;11.762;2023-10-13T23:45:19;4.93;;;1.40;;
17504;SDS011;8870;50.950;11.762;2023-10-13T23:50:52;2.95;;;1.30;;
17504;SDS011;8870;50.950;11.762;2023-10-13T23:56:14;5.07;;;1.40;;
